createdAt,value
2023-04-08T00:00:25.305Z,23.32
2023-04-08T00:01:25.347Z,23.36
2023-04-08T00:02:25.558Z,23.33
2023-04-08T00:03:25.442Z,23.33
2023-04-08T00:04:26.115Z,23.33
2023-04-08T00:05:25.459Z,23.32
2023-04-08T00:06:25.480Z,23.31
2023-04-08T00:07:25.517Z,23.33
2023-04-08T00:08:26.458Z,23.29
2023-04-08T00:09:25.568Z,23.32
2023-04-08T00:10:25.614Z,23.37
2023-04-08T00:11:25.626Z,23.33
2023-04-08T00:12:25.650Z,23.32
2023-04-08T00:13:25.684Z,23.38
2023-04-08T00:14:25.694Z,23.35
2023-04-08T00:15:25.782Z,23.32
2023-04-08T00:16:25.717Z,23.36
2023-04-08T00:17:25.741Z,23.32
2023-04-08T00:18:25.796Z,23.33
2023-04-08T00:19:25.721Z,23.32
2023-04-08T00:20:25.730Z,23.39
2023-04-08T00:21:25.727Z,23.36
2023-04-08T00:22:25.735Z,23.40
2023-04-08T00:23:25.753Z,23.36
2023-04-08T00:24:25.838Z,23.41
2023-04-08T00:25:25.959Z,23.39
2023-04-08T00:26:25.858Z,23.37
2023-04-08T00:27:25.883Z,23.43
2023-04-08T00:28:25.876Z,23.39
2023-04-08T00:29:25.874Z,23.38
2023-04-08T00:30:25.875Z,23.36
2023-04-08T00:31:26.000Z,23.42
2023-04-08T00:32:25.911Z,23.41
2023-04-08T00:33:25.941Z,23.42
2023-04-08T00:34:25.946Z,23.39
2023-04-08T00:35:26.020Z,23.44
2023-04-08T00:36:25.983Z,23.41
2023-04-08T00:37:25.989Z,23.44
2023-04-08T00:38:25.989Z,23.47
2023-04-08T00:39:26.081Z,23.37
2023-04-08T00:40:26.006Z,23.44
2023-04-08T00:41:26.012Z,23.42
2023-04-08T00:42:26.053Z,23.43
2023-04-08T00:43:26.050Z,23.40
2023-04-08T00:44:26.063Z,23.43
2023-04-08T00:45:26.073Z,23.46
2023-04-08T00:46:26.124Z,23.41
2023-04-08T00:47:26.128Z,23.44
2023-04-08T00:48:26.111Z,23.47
2023-04-08T00:49:26.966Z,23.40
2023-04-08T00:50:26.147Z,23.43
2023-04-08T00:51:26.137Z,23.41
2023-04-08T00:52:26.170Z,23.46
2023-04-08T00:53:26.165Z,23.46
2023-04-08T00:54:26.222Z,23.40
2023-04-08T00:55:26.203Z,23.41
2023-04-08T00:56:26.226Z,23.46
2023-04-08T00:57:26.304Z,23.46
2023-04-08T00:58:26.219Z,23.46
2023-04-08T00:59:26.217Z,23.43
2023-04-08T01:00:26.280Z,23.46
2023-04-08T01:01:26.264Z,23.44
2023-04-08T01:02:26.578Z,23.44
2023-04-08T01:03:26.480Z,23.44
2023-04-08T01:04:26.324Z,23.43
2023-04-08T01:05:26.255Z,23.43
2023-04-08T01:06:26.316Z,23.46
2023-04-08T01:07:26.290Z,23.48
2023-04-08T01:08:26.370Z,23.46
2023-04-08T01:09:26.323Z,23.47
2023-04-08T01:10:26.486Z,23.46
2023-04-08T01:11:26.371Z,23.51
2023-04-08T01:12:26.395Z,23.44
2023-04-08T01:13:26.974Z,23.48
2023-04-08T01:14:26.405Z,23.47
2023-04-08T01:15:26.435Z,23.48
2023-04-08T01:16:26.446Z,23.50
2023-04-08T01:17:26.506Z,23.50
2023-04-08T01:18:26.450Z,23.47
2023-04-08T01:19:26.455Z,23.52
2023-04-08T01:20:26.455Z,23.55
2023-04-08T01:21:26.452Z,23.48
2023-04-08T01:22:26.467Z,23.52
2023-04-08T01:23:26.452Z,23.52
2023-04-08T01:24:26.457Z,23.52
2023-04-08T01:25:26.452Z,23.52
2023-04-08T01:26:26.464Z,23.50
2023-04-08T01:27:26.445Z,23.52
2023-04-08T01:28:26.469Z,23.54
2023-04-08T01:29:26.439Z,23.54
2023-04-08T01:30:26.444Z,23.52
2023-04-08T01:31:26.484Z,23.48
2023-04-08T01:32:26.468Z,23.52
2023-04-08T01:33:26.463Z,23.55
2023-04-08T01:34:26.503Z,23.55
2023-04-08T01:35:26.564Z,23.56
2023-04-08T01:36:26.455Z,23.54
2023-04-08T01:37:26.463Z,23.55
2023-04-08T01:38:26.469Z,23.54
2023-04-08T01:39:26.457Z,23.52
2023-04-08T01:40:26.468Z,23.51
2023-04-08T01:41:26.454Z,23.55
2023-04-08T01:42:26.454Z,23.55
2023-04-08T01:43:26.470Z,23.54
2023-04-08T01:44:26.476Z,23.53
2023-04-08T01:45:26.441Z,23.59
2023-04-08T01:46:26.502Z,23.51
2023-04-08T01:47:26.472Z,23.51
2023-04-08T01:48:26.459Z,23.52
2023-04-08T01:49:26.444Z,23.56
2023-04-08T01:50:26.995Z,23.55
2023-04-08T01:51:26.432Z,23.55
2023-04-08T01:52:26.438Z,23.49
2023-04-08T01:53:26.449Z,23.56
2023-04-08T01:54:26.445Z,23.54
2023-04-08T01:55:26.441Z,23.56
2023-04-08T01:56:26.455Z,23.56
2023-04-08T01:57:26.459Z,23.49
2023-04-08T01:58:26.469Z,23.53
2023-04-08T01:59:26.448Z,23.52
2023-04-08T02:00:26.481Z,23.55
2023-04-08T02:01:26.554Z,23.53
2023-04-08T02:02:26.713Z,23.60
2023-04-08T02:03:26.734Z,23.60
2023-04-08T02:04:26.526Z,23.59
2023-04-08T02:05:26.474Z,23.62
2023-04-08T02:06:26.478Z,23.60
2023-04-08T02:07:26.501Z,23.62
2023-04-08T02:08:26.500Z,23.53
2023-04-08T02:09:26.512Z,23.67
2023-04-08T02:10:26.491Z,23.62
2023-04-08T02:11:26.485Z,23.59
2023-04-08T02:12:26.489Z,23.64
2023-04-08T02:13:26.553Z,23.63
2023-04-08T02:14:26.491Z,23.62
2023-04-08T02:15:26.484Z,23.59
2023-04-08T02:16:26.548Z,23.63
2023-04-08T02:17:26.514Z,23.62
2023-04-08T02:18:26.489Z,23.66
2023-04-08T02:19:26.488Z,23.64
2023-04-08T02:20:26.480Z,23.62
2023-04-08T02:21:26.488Z,23.62
2023-04-08T02:22:26.493Z,23.62
2023-04-08T02:23:26.495Z,23.60
2023-04-08T02:24:26.508Z,23.60
2023-04-08T02:25:26.503Z,23.70
2023-04-08T02:26:26.508Z,23.63
2023-04-08T02:27:26.521Z,23.62
2023-04-08T02:28:26.527Z,23.63
2023-04-08T02:29:26.531Z,23.62
2023-04-08T02:30:26.540Z,23.66
2023-04-08T02:31:26.597Z,23.67
2023-04-08T02:32:26.558Z,23.66
2023-04-08T02:33:26.541Z,23.63
2023-04-08T02:34:26.551Z,23.66
2023-04-08T02:35:26.571Z,23.70
2023-04-08T02:36:26.577Z,23.67
2023-04-08T02:37:26.567Z,23.66
2023-04-08T02:38:27.021Z,23.71
2023-04-08T02:39:26.687Z,23.66
2023-04-08T02:40:26.566Z,23.64
2023-04-08T02:41:26.578Z,23.71
2023-04-08T02:42:26.585Z,23.68
2023-04-08T02:43:26.580Z,23.71
2023-04-08T02:44:26.591Z,23.69
2023-04-08T02:45:26.740Z,23.67
2023-04-08T02:46:26.578Z,23.66
2023-04-08T02:47:27.537Z,23.68
2023-04-08T02:48:27.017Z,23.71
2023-04-08T02:49:26.587Z,23.80
2023-04-08T02:50:26.587Z,23.70
2023-04-08T02:51:26.590Z,23.71
2023-04-08T02:52:26.597Z,23.70
2023-04-08T02:53:26.588Z,23.75
2023-04-08T02:54:26.589Z,23.73
2023-04-08T02:55:26.665Z,23.72
2023-04-08T02:56:26.588Z,23.70
2023-04-08T02:57:26.594Z,23.80
2023-04-08T02:58:26.622Z,23.71
2023-04-08T02:59:26.598Z,23.78
2023-04-08T03:00:26.593Z,23.73
2023-04-08T03:01:26.626Z,23.71
2023-04-08T03:02:26.715Z,23.78
2023-04-08T03:03:27.113Z,23.74
2023-04-08T03:04:26.607Z,23.72
2023-04-08T03:05:26.614Z,23.77
2023-04-08T03:06:26.586Z,23.75
2023-04-08T03:07:26.592Z,23.78
2023-04-08T03:08:26.592Z,23.78
2023-04-08T03:09:26.590Z,23.75
2023-04-08T03:10:26.588Z,23.72
2023-04-08T03:11:26.581Z,23.78
2023-04-08T03:12:26.592Z,23.74
2023-04-08T03:13:26.591Z,23.78
2023-04-08T03:14:26.590Z,23.79
2023-04-08T03:15:26.584Z,23.79
2023-04-08T03:16:26.617Z,23.84
2023-04-08T03:17:26.622Z,23.81
2023-04-08T03:18:26.596Z,23.81
2023-04-08T03:19:27.526Z,23.82
2023-04-08T03:20:26.610Z,23.76
2023-04-08T03:21:26.603Z,23.74
2023-04-08T03:22:26.736Z,23.77
2023-04-08T03:23:26.605Z,23.81
2023-04-08T03:24:26.616Z,23.81
2023-04-08T03:25:26.622Z,23.75
2023-04-08T03:26:26.602Z,23.82
2023-04-08T03:27:26.620Z,23.83
2023-04-08T03:28:26.618Z,23.83
2023-04-08T03:29:26.613Z,23.86
2023-04-08T03:30:26.632Z,23.88
2023-04-08T03:31:26.647Z,23.83
2023-04-08T03:32:26.658Z,23.81
2023-04-08T03:33:26.635Z,23.82
2023-04-08T03:34:26.634Z,23.83
2023-04-08T03:35:26.692Z,23.87
2023-04-08T03:36:26.651Z,23.85
2023-04-08T03:37:26.664Z,23.82
2023-04-08T03:38:26.658Z,23.86
2023-04-08T03:39:26.674Z,23.88
2023-04-08T03:40:26.665Z,23.86
2023-04-08T03:41:26.677Z,23.83
2023-04-08T03:42:26.688Z,23.82
2023-04-08T03:43:26.663Z,23.83
2023-04-08T03:44:26.681Z,23.86
2023-04-08T03:45:26.736Z,23.81
2023-04-08T03:46:26.783Z,23.82
2023-04-08T03:47:26.735Z,23.83
2023-04-08T03:48:26.692Z,23.86
2023-04-08T03:49:26.714Z,23.85
2023-04-08T03:50:26.802Z,23.83
2023-04-08T03:51:26.721Z,23.82
2023-04-08T03:52:26.720Z,23.90
2023-04-08T03:53:26.730Z,23.88
2023-04-08T03:54:26.729Z,23.83
2023-04-08T03:55:26.749Z,23.86
2023-04-08T03:56:26.751Z,23.83
2023-04-08T03:57:26.768Z,23.86
2023-04-08T03:58:26.780Z,23.89
2023-04-08T03:59:26.788Z,23.89
2023-04-08T04:00:26.804Z,23.89
2023-04-08T04:01:26.808Z,23.87
2023-04-08T04:02:27.041Z,23.82
2023-04-08T04:03:26.941Z,23.87
2023-04-08T04:04:26.942Z,23.89
2023-04-08T04:05:26.860Z,23.85
2023-04-08T04:06:26.864Z,23.86
2023-04-08T04:07:26.870Z,23.92
2023-04-08T04:08:26.912Z,23.89
2023-04-08T04:09:26.908Z,23.92
2023-04-08T04:10:26.913Z,23.86
2023-04-08T04:11:26.928Z,23.89
2023-04-08T04:12:27.011Z,23.87
2023-04-08T04:13:26.949Z,23.89
2023-04-08T04:14:26.953Z,23.92
2023-04-08T04:15:27.039Z,23.93
2023-04-08T04:16:26.969Z,23.89
2023-04-08T04:17:27.048Z,23.93
2023-04-08T04:18:27.054Z,23.94
2023-04-08T04:19:27.002Z,23.93
2023-04-08T04:20:27.013Z,23.93
2023-04-08T04:21:27.025Z,23.95
2023-04-08T04:22:27.029Z,23.97
2023-04-08T04:23:27.037Z,23.91
2023-04-08T04:24:27.039Z,23.91
2023-04-08T04:25:27.077Z,23.95
2023-04-08T04:26:27.072Z,23.98
2023-04-08T04:27:27.074Z,23.91
2023-04-08T04:28:27.155Z,23.94
2023-04-08T04:29:27.070Z,23.97
2023-04-08T04:30:27.081Z,23.98
2023-04-08T04:31:28.109Z,24.00
2023-04-08T04:32:27.163Z,23.95
2023-04-08T04:33:27.090Z,23.97
2023-04-08T04:34:27.100Z,23.93
2023-04-08T04:35:27.118Z,23.94
2023-04-08T04:36:27.103Z,23.98
2023-04-08T04:37:27.100Z,23.94
2023-04-08T04:38:27.118Z,23.97
2023-04-08T04:39:28.084Z,23.97
2023-04-08T04:40:27.112Z,23.97
2023-04-08T04:41:27.128Z,23.94
2023-04-08T04:42:27.137Z,23.97
2023-04-08T04:43:27.136Z,23.98
2023-04-08T04:44:27.152Z,23.98
2023-04-08T04:45:27.138Z,23.97
2023-04-08T04:46:27.172Z,24.00
2023-04-08T04:47:27.153Z,23.97
2023-04-08T04:48:27.161Z,23.97
2023-04-08T04:49:27.163Z,23.97
2023-04-08T04:50:27.176Z,23.94
2023-04-08T04:51:27.182Z,23.98
2023-04-08T04:52:27.214Z,23.98
2023-04-08T04:53:27.202Z,24.00
2023-04-08T04:54:27.206Z,24.00
2023-04-08T04:55:27.211Z,23.98
2023-04-08T04:56:27.234Z,23.94
2023-04-08T04:57:27.232Z,23.94
2023-04-08T04:58:27.229Z,24.02
2023-04-08T04:59:27.236Z,23.98
2023-04-08T05:00:27.243Z,23.99
2023-04-08T05:01:27.295Z,24.01
2023-04-08T05:02:27.441Z,24.04
2023-04-08T05:03:27.292Z,24.03
2023-04-08T05:04:27.282Z,24.01
2023-04-08T05:05:27.301Z,23.98
2023-04-08T05:06:27.314Z,24.02
2023-04-08T05:07:27.305Z,24.03
2023-04-08T05:08:28.143Z,23.95
2023-04-08T05:09:27.321Z,24.02
2023-04-08T05:10:27.331Z,24.00
2023-04-08T05:11:27.344Z,24.02
2023-04-08T05:12:27.349Z,24.01
2023-04-08T05:13:27.353Z,24.01
2023-04-08T05:14:27.363Z,24.06
2023-04-08T05:15:27.379Z,24.03
2023-04-08T05:16:27.462Z,24.03
2023-04-08T05:17:27.438Z,24.05
2023-04-08T05:18:27.444Z,24.01
2023-04-08T05:19:27.457Z,24.05
2023-04-08T05:20:27.482Z,24.06
2023-04-08T05:21:27.497Z,24.03
2023-04-08T05:22:27.517Z,24.06
2023-04-08T05:23:27.541Z,24.09
2023-04-08T05:24:27.546Z,24.06
2023-04-08T05:25:27.563Z,24.03
2023-04-08T05:26:27.603Z,24.09
2023-04-08T05:27:27.609Z,24.05
2023-04-08T05:28:27.635Z,24.03
2023-04-08T05:29:27.668Z,24.03
2023-04-08T05:30:27.668Z,24.06
2023-04-08T05:31:27.708Z,24.03
2023-04-08T05:32:27.714Z,24.11
2023-04-08T05:33:27.735Z,24.06
2023-04-08T05:34:27.738Z,24.06
2023-04-08T05:35:28.613Z,24.08
2023-04-08T05:36:27.783Z,24.06
2023-04-08T05:37:27.795Z,24.05
2023-04-08T05:38:27.803Z,24.09
2023-04-08T05:39:27.820Z,24.08
2023-04-08T05:40:27.833Z,24.06
2023-04-08T05:41:27.839Z,24.05
2023-04-08T05:42:27.849Z,24.03
2023-04-08T05:43:27.859Z,24.03
2023-04-08T05:44:27.869Z,24.01
2023-04-08T05:45:27.888Z,24.02
2023-04-08T05:46:27.915Z,24.05
2023-04-08T05:47:27.930Z,24.04
2023-04-08T05:48:27.925Z,24.00
2023-04-08T05:49:27.921Z,23.98
2023-04-08T05:50:27.932Z,24.01
2023-04-08T05:51:27.938Z,24.02
2023-04-08T05:52:27.953Z,24.00
2023-04-08T05:53:27.965Z,24.01
2023-04-08T05:54:27.978Z,24.04
2023-04-08T05:55:27.985Z,24.02
2023-04-08T05:56:27.986Z,24.02
2023-04-08T05:57:28.004Z,23.98
2023-04-08T05:58:28.003Z,24.06
2023-04-08T05:59:28.008Z,24.01
2023-04-08T06:00:28.179Z,24.00
2023-04-08T06:01:28.035Z,24.01
2023-04-08T06:02:28.209Z,24.00
2023-04-08T06:03:28.154Z,24.04
2023-04-08T06:04:28.101Z,24.05
2023-04-08T06:05:28.599Z,24.06
2023-04-08T06:06:28.090Z,24.04
2023-04-08T06:07:28.106Z,24.08
2023-04-08T06:08:28.109Z,24.09
2023-04-08T06:09:28.193Z,24.06
2023-04-08T06:10:28.130Z,24.06
2023-04-08T06:11:28.177Z,24.05
2023-04-08T06:12:28.171Z,24.05
2023-04-08T06:13:28.183Z,24.02
2023-04-08T06:14:28.593Z,24.09
2023-04-08T06:15:28.234Z,24.08
2023-04-08T06:16:28.267Z,24.05
2023-04-08T06:17:28.250Z,24.02
2023-04-08T06:18:28.241Z,24.06
2023-04-08T06:19:28.225Z,24.09
2023-04-08T06:20:28.251Z,24.06
2023-04-08T06:21:28.240Z,24.05
2023-04-08T06:22:28.242Z,24.06
2023-04-08T06:23:28.266Z,24.06
2023-04-08T06:24:28.262Z,24.04
2023-04-08T06:25:28.274Z,24.05
2023-04-08T06:26:28.271Z,24.05
2023-04-08T06:27:28.273Z,24.05
2023-04-08T06:28:28.289Z,24.06
2023-04-08T06:29:28.289Z,24.09
2023-04-08T06:30:28.343Z,24.09
2023-04-08T06:31:28.468Z,24.11
2023-04-08T06:32:28.472Z,24.08
2023-04-08T06:33:28.322Z,24.06
2023-04-08T06:34:28.325Z,24.03
2023-04-08T06:35:28.464Z,24.09
2023-04-08T06:36:28.373Z,24.09
2023-04-08T06:37:28.349Z,24.04
2023-04-08T06:38:28.366Z,24.05
2023-04-08T06:39:28.363Z,24.06
2023-04-08T06:40:28.368Z,24.08
2023-04-08T06:41:28.391Z,24.04
2023-04-08T06:42:28.398Z,24.07
2023-04-08T06:43:29.099Z,24.04
2023-04-08T06:44:28.413Z,24.06
2023-04-08T06:45:28.428Z,24.07
2023-04-08T06:46:28.485Z,24.06
2023-04-08T06:47:28.467Z,24.05
2023-04-08T06:48:28.478Z,24.06
2023-04-08T06:49:28.474Z,24.04
2023-04-08T06:50:28.496Z,24.07
2023-04-08T06:51:28.504Z,24.04
2023-04-08T06:52:28.522Z,24.06
2023-04-08T06:53:28.605Z,24.07
2023-04-08T06:54:28.544Z,24.11
2023-04-08T06:55:28.634Z,24.04
2023-04-08T06:56:28.575Z,24.05
2023-04-08T06:57:28.563Z,24.07
2023-04-08T06:58:28.593Z,24.07
2023-04-08T06:59:28.581Z,24.05
2023-04-08T07:00:28.584Z,24.07
2023-04-08T07:01:28.644Z,24.06
2023-04-08T07:02:28.668Z,24.05
2023-04-08T07:03:28.690Z,24.07
2023-04-08T07:04:28.648Z,24.06
2023-04-08T07:05:28.641Z,24.08
2023-04-08T07:06:28.657Z,24.06
2023-04-08T07:07:28.658Z,24.07
2023-04-08T07:08:28.665Z,24.07
2023-04-08T07:09:28.691Z,24.11
2023-04-08T07:10:28.715Z,24.05
2023-04-08T07:11:28.709Z,24.08
2023-04-08T07:12:28.737Z,24.05
2023-04-08T07:13:28.746Z,24.08
2023-04-08T07:14:28.746Z,24.12
2023-04-08T07:15:28.780Z,24.08
2023-04-08T07:16:28.797Z,24.11
2023-04-08T07:17:28.788Z,24.09
2023-04-08T07:18:28.771Z,24.08
2023-04-08T07:19:28.790Z,24.08
2023-04-08T07:20:30.852Z,24.06
2023-04-08T07:21:28.792Z,24.11
2023-04-08T07:22:28.779Z,24.11
2023-04-08T07:23:28.776Z,24.08
2023-04-08T07:24:28.783Z,24.09
2023-04-08T07:25:28.794Z,24.11
2023-04-08T07:26:28.764Z,24.09
2023-04-08T07:27:28.765Z,24.08
2023-04-08T07:28:28.765Z,24.09
2023-04-08T07:29:28.741Z,24.09
2023-04-08T07:30:28.860Z,24.10
2023-04-08T07:31:28.783Z,24.13
2023-04-08T07:32:28.758Z,24.07
2023-04-08T07:33:28.705Z,24.15
2023-04-08T07:34:28.718Z,24.12
2023-04-08T07:35:28.721Z,24.09
2023-04-08T07:36:28.709Z,24.11
2023-04-08T07:37:28.698Z,24.11
2023-04-08T07:38:28.678Z,24.12
2023-04-08T07:39:28.670Z,24.12
2023-04-08T07:40:28.666Z,24.11
2023-04-08T07:41:28.651Z,24.12
2023-04-08T07:42:28.696Z,24.11
2023-04-08T07:43:28.644Z,24.11
2023-04-08T07:44:28.630Z,24.12
2023-04-08T07:45:28.623Z,24.09
2023-04-08T07:46:28.730Z,24.09
2023-04-08T07:47:28.652Z,24.09
2023-04-08T07:48:28.601Z,24.09
2023-04-08T07:49:28.597Z,24.11
2023-04-08T07:50:28.599Z,24.11
2023-04-08T07:51:28.582Z,24.10
2023-04-08T07:52:28.569Z,24.17
2023-04-08T07:53:28.570Z,24.08
2023-04-08T07:54:28.569Z,24.11
2023-04-08T07:55:28.545Z,24.09
2023-04-08T07:56:28.538Z,24.10
2023-04-08T07:57:28.562Z,24.11
2023-04-08T07:58:28.542Z,24.10
2023-04-08T07:59:28.522Z,24.03
2023-04-08T08:00:28.516Z,24.07
2023-04-08T08:01:28.510Z,24.04
2023-04-08T08:02:28.632Z,24.03
2023-04-08T08:03:28.725Z,24.08
2023-04-08T08:04:28.779Z,24.06
2023-04-08T08:05:28.498Z,24.04
2023-04-08T08:06:28.490Z,24.06
2023-04-08T08:07:29.136Z,24.06
2023-04-08T08:08:28.472Z,24.02
2023-04-08T08:09:29.679Z,24.03
2023-04-08T08:10:28.549Z,24.01
2023-04-08T08:11:28.541Z,24.01
2023-04-08T08:12:28.536Z,24.01
2023-04-08T08:13:28.544Z,23.98
2023-04-08T08:14:28.533Z,24.01
2023-04-08T08:15:28.542Z,23.99
2023-04-08T08:16:29.224Z,23.98
2023-04-08T08:17:28.545Z,23.97
2023-04-08T08:18:28.539Z,23.94
2023-04-08T08:19:28.531Z,23.91
2023-04-08T08:20:28.555Z,23.93
2023-04-08T08:21:28.547Z,23.98
2023-04-08T08:22:28.546Z,23.96
2023-04-08T08:23:28.558Z,23.93
2023-04-08T08:24:28.546Z,23.94
2023-04-08T08:25:28.547Z,23.94
2023-04-08T08:26:28.566Z,23.92
2023-04-08T08:27:28.570Z,23.85
2023-04-08T08:28:28.589Z,23.88
2023-04-08T08:29:28.599Z,23.86
2023-04-08T08:30:28.635Z,23.86
2023-04-08T08:31:28.717Z,23.88
2023-04-08T08:32:28.668Z,23.75
2023-04-08T08:33:28.694Z,23.70
2023-04-08T08:34:28.745Z,23.65
2023-04-08T08:35:28.807Z,23.56
2023-04-08T08:36:28.829Z,23.51
2023-04-08T08:37:28.865Z,23.47
2023-04-08T08:38:28.893Z,23.46
2023-04-08T08:39:28.928Z,23.44
2023-04-08T08:40:28.971Z,23.46
2023-04-08T08:41:29.021Z,23.49
2023-04-08T08:42:29.090Z,23.48
2023-04-08T08:43:29.145Z,23.47
2023-04-08T08:44:29.183Z,23.48
2023-04-08T08:45:29.240Z,23.51
2023-04-08T08:46:29.318Z,23.48
2023-04-08T08:47:29.377Z,23.47
2023-04-08T08:48:29.408Z,23.47
2023-04-08T08:49:29.469Z,23.50
2023-04-08T08:50:29.591Z,23.46
2023-04-08T08:51:29.555Z,23.42
2023-04-08T08:52:29.600Z,23.33
2023-04-08T08:53:29.651Z,23.37
2023-04-08T08:54:29.671Z,23.33
2023-04-08T08:55:46.683Z,23.36
2023-04-08T08:56:30.724Z,23.36
2023-04-08T08:57:29.698Z,23.31
2023-04-08T08:58:30.646Z,23.30
2023-04-08T08:59:29.686Z,23.25
2023-04-08T09:00:29.684Z,23.18
2023-04-08T09:01:29.775Z,23.11
2023-04-08T09:02:29.930Z,23.05
2023-04-08T09:03:29.961Z,22.99
2023-04-08T09:04:29.877Z,22.97
2023-04-08T09:05:29.791Z,22.94
2023-04-08T09:06:29.653Z,22.94
2023-04-08T09:07:29.630Z,22.91
2023-04-08T09:08:29.645Z,22.91
2023-04-08T09:09:29.624Z,22.87
2023-04-08T09:10:29.613Z,22.83
2023-04-08T09:11:29.626Z,22.77
2023-04-08T09:12:29.651Z,22.67
2023-04-08T09:13:29.680Z,22.60
2023-04-08T09:14:29.690Z,22.61
2023-04-08T09:15:29.709Z,22.55
2023-04-08T09:16:29.741Z,22.51
2023-04-08T09:17:29.762Z,22.46
2023-04-08T09:18:29.727Z,22.44
2023-04-08T09:19:29.756Z,22.44
2023-04-08T09:20:29.759Z,22.38
2023-04-08T09:21:29.761Z,22.43
2023-04-08T09:22:29.771Z,22.37
2023-04-08T09:23:29.785Z,22.34
2023-04-08T09:24:29.800Z,22.33
2023-04-08T09:25:29.795Z,22.31
2023-04-08T09:26:29.799Z,22.26
2023-04-08T09:27:29.803Z,22.21
2023-04-08T09:28:30.666Z,22.18
2023-04-08T09:29:32.461Z,22.14
2023-04-08T09:30:29.836Z,22.11
2023-04-08T09:31:29.915Z,22.08
2023-04-08T09:32:29.852Z,22.09
2023-04-08T09:33:29.794Z,22.15
2023-04-08T09:34:29.821Z,22.09
2023-04-08T09:35:29.822Z,22.03
2023-04-08T09:36:30.668Z,21.98
2023-04-08T09:37:29.866Z,21.99
2023-04-08T09:38:29.761Z,22.03
2023-04-08T09:39:29.761Z,21.99
2023-04-08T09:40:29.750Z,21.99
2023-04-08T09:41:29.760Z,21.96
2023-04-08T09:42:29.789Z,21.97
2023-04-08T09:43:29.794Z,21.94
2023-04-08T09:44:29.830Z,21.93
2023-04-08T09:45:29.926Z,22.06
2023-04-08T09:46:29.875Z,22.01
2023-04-08T09:47:29.899Z,22.07
2023-04-08T09:48:30.673Z,22.03
2023-04-08T09:49:29.961Z,21.99
2023-04-08T09:50:29.998Z,22.04
2023-04-08T09:51:30.036Z,22.07
2023-04-08T09:52:30.066Z,22.13
2023-04-08T09:53:30.103Z,22.10
2023-04-08T09:54:30.132Z,22.17
2023-04-08T09:55:30.149Z,22.20
2023-04-08T09:56:30.228Z,22.17
2023-04-08T09:57:30.225Z,22.18
2023-04-08T09:58:30.190Z,22.18
2023-04-08T09:59:30.196Z,22.24
2023-04-08T10:00:30.194Z,22.21
2023-04-08T10:01:30.251Z,22.17
2023-04-08T10:02:30.427Z,22.24
2023-04-08T10:03:30.317Z,22.21
2023-04-08T10:04:30.329Z,22.24
2023-04-08T10:05:30.263Z,22.32
2023-04-08T10:06:30.286Z,22.33
2023-04-08T10:07:30.311Z,22.32
2023-04-08T10:08:30.331Z,22.29
2023-04-08T10:09:30.358Z,22.30
2023-04-08T10:10:30.356Z,22.32
2023-04-08T10:11:30.349Z,22.33
2023-04-08T10:12:30.355Z,22.31
2023-04-08T10:13:30.348Z,22.31
2023-04-08T10:14:30.337Z,22.34
2023-04-08T10:15:30.344Z,22.35
2023-04-08T10:16:30.422Z,22.35
2023-04-08T10:17:30.383Z,22.32
2023-04-08T10:18:30.357Z,22.37
2023-04-08T10:19:30.356Z,22.34
2023-04-08T10:20:30.357Z,22.34
2023-04-08T10:21:30.355Z,22.33
2023-04-08T10:22:30.371Z,22.30
2023-04-08T10:23:30.358Z,22.25
2023-04-08T10:24:30.353Z,22.21
2023-04-08T10:25:30.353Z,22.26
2023-04-08T10:26:30.361Z,22.20
2023-04-08T10:27:30.361Z,22.18
2023-04-08T10:28:30.365Z,22.21
2023-04-08T10:29:30.385Z,22.13
2023-04-08T10:30:30.415Z,22.13
2023-04-08T10:31:30.505Z,22.04
2023-04-08T10:32:30.596Z,22.04
2023-04-08T10:33:30.561Z,22.04
2023-04-08T10:34:30.617Z,22.03
2023-04-08T10:35:30.735Z,22.01
2023-04-08T10:36:30.725Z,21.97
2023-04-08T10:37:30.785Z,22.03
2023-04-08T10:38:30.838Z,22.04
2023-04-08T10:39:30.890Z,22.02
2023-04-08T10:40:30.925Z,22.07
2023-04-08T10:41:30.976Z,22.08
2023-04-08T10:42:31.035Z,22.08
2023-04-08T10:43:31.064Z,22.09
2023-04-08T10:44:31.101Z,22.09
2023-04-08T10:45:31.111Z,22.15
2023-04-08T10:46:31.330Z,22.11
2023-04-08T10:47:31.187Z,22.09
2023-04-08T10:48:31.168Z,22.18
2023-04-08T10:49:31.180Z,22.12
2023-04-08T10:50:31.193Z,22.16
2023-04-08T10:51:33.086Z,22.16
2023-04-08T10:52:31.343Z,22.19
2023-04-08T10:53:31.382Z,22.22
2023-04-08T10:54:31.380Z,22.28
2023-04-08T10:55:31.373Z,22.25
2023-04-08T10:56:31.378Z,22.23
2023-04-08T10:57:31.409Z,22.26
2023-04-08T10:58:31.376Z,22.26
2023-04-08T10:59:31.378Z,22.26
2023-04-08T11:00:31.381Z,22.28
2023-04-08T11:01:31.483Z,22.32
2023-04-08T11:02:31.509Z,22.39
2023-04-08T11:03:31.461Z,22.29
2023-04-08T11:04:31.634Z,22.35
2023-04-08T11:05:31.404Z,22.35
2023-04-08T11:06:31.409Z,22.36
2023-04-08T11:07:31.395Z,22.43
2023-04-08T11:08:31.421Z,22.37
2023-04-08T11:09:31.424Z,22.40
2023-04-08T11:10:31.435Z,22.37
2023-04-08T11:11:31.431Z,22.39
2023-04-08T11:12:31.503Z,22.42
2023-04-08T11:13:31.446Z,22.43
2023-04-08T11:14:31.441Z,22.43
2023-04-08T11:15:31.493Z,22.50
2023-04-08T11:16:31.534Z,22.56
2023-04-08T11:17:31.553Z,22.56
2023-04-08T11:18:31.483Z,22.53
2023-04-08T11:19:31.537Z,22.56
2023-04-08T11:20:31.553Z,22.53
2023-04-08T11:21:31.560Z,22.54
2023-04-08T11:22:31.578Z,22.65
2023-04-08T11:23:31.580Z,22.65
2023-04-08T11:24:31.591Z,22.62
2023-04-08T11:25:31.685Z,22.65
2023-04-08T11:26:31.624Z,22.54
2023-04-08T11:27:31.608Z,22.62
2023-04-08T11:28:31.630Z,22.59
2023-04-08T11:29:31.718Z,22.57
2023-04-08T11:30:31.643Z,22.60
2023-04-08T11:31:31.672Z,22.56
2023-04-08T11:32:31.708Z,22.59
2023-04-08T11:33:31.729Z,22.63
2023-04-08T11:34:31.700Z,22.60
2023-04-08T11:35:31.744Z,22.69
2023-04-08T11:36:31.731Z,22.71
2023-04-08T11:37:31.751Z,22.72
2023-04-08T11:38:31.777Z,22.63
2023-04-08T11:39:31.773Z,22.70
2023-04-08T11:40:31.790Z,22.64
2023-04-08T11:41:31.801Z,22.69
2023-04-08T11:42:31.810Z,22.69
2023-04-08T11:43:31.935Z,22.61
2023-04-08T11:44:31.938Z,22.66
2023-04-08T11:45:32.712Z,22.72
2023-04-08T11:46:32.043Z,22.73
2023-04-08T11:47:32.139Z,22.73
2023-04-08T11:48:32.013Z,22.75
2023-04-08T11:49:32.007Z,22.66
2023-04-08T11:50:32.034Z,22.80
2023-04-08T11:51:32.061Z,22.80
2023-04-08T11:52:32.074Z,22.77
2023-04-08T11:53:32.093Z,22.76
2023-04-08T11:54:32.165Z,22.81
2023-04-08T11:55:32.140Z,22.83
2023-04-08T11:56:32.162Z,22.89
2023-04-08T11:57:32.164Z,22.86
2023-04-08T11:58:32.191Z,22.90
2023-04-08T11:59:32.236Z,22.90
2023-04-08T12:00:32.228Z,22.93
2023-04-08T12:01:32.302Z,22.93
2023-04-08T12:02:32.341Z,22.96
2023-04-08T12:03:32.414Z,22.94
2023-04-08T12:04:32.428Z,22.94
2023-04-08T12:05:32.333Z,22.90
2023-04-08T12:06:32.364Z,22.93
2023-04-08T12:07:32.377Z,22.94
2023-04-08T12:08:32.403Z,22.96
2023-04-08T12:09:32.430Z,22.91
2023-04-08T12:10:32.444Z,22.92
2023-04-08T12:11:32.465Z,22.84
2023-04-08T12:12:32.491Z,22.87
2023-04-08T12:13:32.501Z,22.83
2023-04-08T12:14:32.523Z,22.81
2023-04-08T12:15:32.634Z,22.77
2023-04-08T12:16:32.600Z,22.89
2023-04-08T12:17:32.609Z,22.79
2023-04-08T12:18:32.601Z,22.74
2023-04-08T12:19:34.170Z,22.76
2023-04-08T12:20:32.632Z,22.76
2023-04-08T12:21:32.657Z,22.71
2023-04-08T12:22:32.677Z,22.73
2023-04-08T12:23:32.706Z,22.82
2023-04-08T12:24:32.725Z,22.76
2023-04-08T12:25:32.746Z,22.79
2023-04-08T12:26:32.771Z,22.83
2023-04-08T12:27:32.814Z,22.77
2023-04-08T12:28:32.831Z,22.72
2023-04-08T12:29:32.858Z,22.75
2023-04-08T12:30:32.884Z,22.72
2023-04-08T12:31:32.961Z,22.76
2023-04-08T12:32:33.007Z,22.72
2023-04-08T12:33:32.932Z,22.76
2023-04-08T12:34:32.968Z,22.81
2023-04-08T12:35:32.984Z,22.78
2023-04-08T12:36:32.991Z,22.77
2023-04-08T12:37:33.030Z,22.75
2023-04-08T12:38:33.041Z,22.79
2023-04-08T12:39:33.061Z,22.72
2023-04-08T12:40:33.082Z,22.78
2023-04-08T12:41:33.099Z,22.78
2023-04-08T12:42:33.121Z,22.77
2023-04-08T12:43:33.150Z,22.69
2023-04-08T12:44:33.154Z,22.74
2023-04-08T12:45:33.241Z,22.72
2023-04-08T12:46:33.219Z,22.72
2023-04-08T12:47:33.236Z,22.72
2023-04-08T12:48:33.250Z,22.76
2023-04-08T12:49:39.617Z,22.78
2023-04-08T12:50:34.248Z,22.75
2023-04-08T12:51:33.292Z,22.76
2023-04-08T12:52:33.256Z,22.72